sensor_id;sensor_type;location;lat;lon;timestamp;P1;durP1;ratioP1;P2;durP2;ratioP2
12900;SDS011;6518;50.930;5.344;2022-07-29T00:01:47;5.32;;;2.13;;
12900;SDS011;6518;50.930;5.344;2022-07-29T00:04:17;3.58;;;2.25;;
12900;SDS011;6518;50.930;5.344;2022-07-29T00:06:44;4.22;;;2.17;;
12900;SDS011;6518;50.930;5.344;2022-07-29T00:09:11;5.10;;;2.15;;
12900;SDS011;6518;50.930;5.344;2022-07-29T00:11:39;5.70;;;2.60;;
12900;SDS011;6518;50.930;5.344;2022-07-29T00:14:06;5.50;;;2.33;;
12900;SDS011;6518;50.930;5.344;2022-07-29T00:16:33;7.85;;;2.45;;
12900;SDS011;6518;50.930;5.344;2022-07-29T00:19:00;4.88;;;2.10;;
12900;SDS011;6518;50.930;5.344;2022-07-29T00:21:27;5.95;;;2.30;;
12900;SDS011;6518;50.930;5.344;2022-07-29T00:23:55;6.57;;;2.10;;
12900;SDS011;6518;50.930;5.344;2022-07-29T00:26:22;4.95;;;2.05;;
12900;SDS011;6518;50.930;5.344;2022-07-29T00:28:50;5.80;;;2.55;;
12900;SDS011;6518;50.930;5.344;2022-07-29T00:31:17;3.25;;;2.25;;
12900;SDS011;6518;50.930;5.344;2022-07-29T00:33:44;2.80;;;2.20;;
12900;SDS011;6518;50.930;5.344;2022-07-29T00:36:10;3.38;;;2.42;;
12900;SDS011;6518;50.930;5.344;2022-07-29T00:38:36;5.68;;;2.25;;
12900;SDS011;6518;50.930;5.344;2022-07-29T00:41:03;7.75;;;2.10;;
12900;SDS011;6518;50.930;5.344;2022-07-29T00:43:30;6.18;;;2.45;;
12900;SDS011;6518;50.930;5.344;2022-07-29T00:45:58;7.20;;;2.38;;
12900;SDS011;6518;50.930;5.344;2022-07-29T00:48:25;4.07;;;2.10;;
12900;SDS011;6518;50.930;5.344;2022-07-29T00:50:52;5.75;;;2.58;;
12900;SDS011;6518;50.930;5.344;2022-07-29T00:53:19;4.07;;;2.45;;
12900;SDS011;6518;50.930;5.344;2022-07-29T00:55:47;3.90;;;2.30;;
12900;SDS011;6518;50.930;5.344;2022-07-29T00:58:14;6.53;;;2.30;;
12900;SDS011;6518;50.930;5.344;2022-07-29T01:00:41;3.13;;;2.42;;
12900;SDS011;6518;50.930;5.344;2022-07-29T01:03:10;6.25;;;2.35;;
12900;SDS011;6518;50.930;5.344;2022-07-29T01:05:37;6.55;;;1.80;;
12900;SDS011;6518;50.930;5.344;2022-07-29T01:08:08;4.60;;;2.10;;
12900;SDS011;6518;50.930;5.344;2022-07-29T01:10:37;4.85;;;2.05;;
12900;SDS011;6518;50.930;5.344;2022-07-29T01:13:05;6.35;;;2.30;;
12900;SDS011;6518;50.930;5.344;2022-07-29T01:15:33;3.83;;;2.10;;
12900;SDS011;6518;50.930;5.344;2022-07-29T01:18:11;6.38;;;2.22;;
12900;SDS011;6518;50.930;5.344;2022-07-29T01:20:46;4.72;;;2.30;;
12900;SDS011;6518;50.930;5.344;2022-07-29T01:23:40;5.03;;;2.17;;
12900;SDS011;6518;50.930;5.344;2022-07-29T01:29:14;3.33;;;2.40;;
12900;SDS011;6518;50.930;5.344;2022-07-29T01:31:48;7.90;;;2.55;;
12900;SDS011;6518;50.930;5.344;2022-07-29T01:34:21;6.25;;;2.70;;
12900;SDS011;6518;50.930;5.344;2022-07-29T01:36:55;7.53;;;2.75;;
12900;SDS011;6518;50.930;5.344;2022-07-29T01:39:31;7.03;;;2.30;;
12900;SDS011;6518;50.930;5.344;2022-07-29T01:42:01;4.75;;;2.42;;
12900;SDS011;6518;50.930;5.344;2022-07-29T01:44:40;5.90;;;2.20;;
12900;SDS011;6518;50.930;5.344;2022-07-29T01:47:12;4.57;;;2.45;;
12900;SDS011;6518;50.930;5.344;2022-07-29T01:49:45;3.95;;;2.13;;
12900;SDS011;6518;50.930;5.344;2022-07-29T01:52:19;6.85;;;2.72;;
12900;SDS011;6518;50.930;5.344;2022-07-29T01:54:51;6.18;;;2.95;;
12900;SDS011;6518;50.930;5.344;2022-07-29T01:57:21;3.47;;;2.42;;
12900;SDS011;6518;50.930;5.344;2022-07-29T01:59:53;4.65;;;2.80;;
12900;SDS011;6518;50.930;5.344;2022-07-29T02:02:22;4.57;;;2.90;;
12900;SDS011;6518;50.930;5.344;2022-07-29T02:04:50;6.53;;;2.75;;
12900;SDS011;6518;50.930;5.344;2022-07-29T02:07:20;6.38;;;2.97;;
12900;SDS011;6518;50.930;5.344;2022-07-29T02:09:49;5.88;;;3.15;;
12900;SDS011;6518;50.930;5.344;2022-07-29T02:12:19;7.50;;;3.25;;
12900;SDS011;6518;50.930;5.344;2022-07-29T02:14:48;5.15;;;2.95;;
12900;SDS011;6518;50.930;5.344;2022-07-29T02:17:20;5.82;;;2.95;;
12900;SDS011;6518;50.930;5.344;2022-07-29T02:19:49;7.28;;;3.13;;
12900;SDS011;6518;50.930;5.344;2022-07-29T02:22:18;5.45;;;3.47;;
12900;SDS011;6518;50.930;5.344;2022-07-29T02:24:45;7.55;;;3.53;;
12900;SDS011;6518;50.930;5.344;2022-07-29T02:27:13;6.00;;;3.28;;
12900;SDS011;6518;50.930;5.344;2022-07-29T02:29:41;7.75;;;2.90;;
12900;SDS011;6518;50.930;5.344;2022-07-29T02:32:08;5.53;;;2.85;;
12900;SDS011;6518;50.930;5.344;2022-07-29T02:34:40;5.57;;;3.03;;
12900;SDS011;6518;50.930;5.344;2022-07-29T02:37:09;5.32;;;2.65;;
12900;SDS011;6518;50.930;5.344;2022-07-29T02:39:38;4.15;;;2.88;;
12900;SDS011;6518;50.930;5.344;2022-07-29T02:42:10;6.47;;;2.70;;
12900;SDS011;6518;50.930;5.344;2022-07-29T02:44:39;6.57;;;2.97;;
12900;SDS011;6518;50.930;5.344;2022-07-29T02:47:07;5.25;;;2.92;;
12900;SDS011;6518;50.930;5.344;2022-07-29T02:49:42;4.93;;;2.72;;
12900;SDS011;6518;50.930;5.344;2022-07-29T02:52:18;5.97;;;2.60;;
12900;SDS011;6518;50.930;5.344;2022-07-29T02:54:50;6.28;;;3.08;;
12900;SDS011;6518;50.930;5.344;2022-07-29T02:57:21;9.23;;;3.25;;
12900;SDS011;6518;50.930;5.344;2022-07-29T02:59:56;4.85;;;2.85;;
12900;SDS011;6518;50.930;5.344;2022-07-29T03:02:25;4.70;;;2.60;;
12900;SDS011;6518;50.930;5.344;2022-07-29T03:04:54;5.35;;;2.80;;
12900;SDS011;6518;50.930;5.344;2022-07-29T03:07:23;4.85;;;2.80;;
12900;SDS011;6518;50.930;5.344;2022-07-29T03:09:51;5.28;;;2.80;;
12900;SDS011;6518;50.930;5.344;2022-07-29T03:12:18;3.10;;;2.80;;
12900;SDS011;6518;50.930;5.344;2022-07-29T03:14:46;4.43;;;2.75;;
12900;SDS011;6518;50.930;5.344;2022-07-29T03:17:14;6.80;;;3.58;;
12900;SDS011;6518;50.930;5.344;2022-07-29T03:19:42;5.95;;;2.92;;
12900;SDS011;6518;50.930;5.344;2022-07-29T03:22:12;5.25;;;2.85;;
12900;SDS011;6518;50.930;5.344;2022-07-29T03:24:39;6.88;;;3.22;;
12900;SDS011;6518;50.930;5.344;2022-07-29T03:27:06;4.18;;;2.80;;
12900;SDS011;6518;50.930;5.344;2022-07-29T03:29:33;7.10;;;3.28;;
12900;SDS011;6518;50.930;5.344;2022-07-29T03:32:02;6.00;;;2.47;;
12900;SDS011;6518;50.930;5.344;2022-07-29T03:34:30;5.68;;;2.97;;
12900;SDS011;6518;50.930;5.344;2022-07-29T03:36:57;5.65;;;2.60;;
12900;SDS011;6518;50.930;5.344;2022-07-29T03:39:27;6.68;;;2.63;;
12900;SDS011;6518;50.930;5.344;2022-07-29T03:41:59;5.78;;;2.97;;
12900;SDS011;6518;50.930;5.344;2022-07-29T03:44:26;3.95;;;2.55;;
12900;SDS011;6518;50.930;5.344;2022-07-29T03:46:55;6.82;;;2.80;;
12900;SDS011;6518;50.930;5.344;2022-07-29T03:49:25;4.60;;;2.72;;
12900;SDS011;6518;50.930;5.344;2022-07-29T03:51:53;6.30;;;2.72;;
12900;SDS011;6518;50.930;5.344;2022-07-29T03:54:21;4.90;;;2.83;;
12900;SDS011;6518;50.930;5.344;2022-07-29T03:56:50;4.57;;;2.80;;
12900;SDS011;6518;50.930;5.344;2022-07-29T03:59:19;4.85;;;2.88;;
12900;SDS011;6518;50.930;5.344;2022-07-29T04:01:48;4.78;;;2.88;;
12900;SDS011;6518;50.930;5.344;2022-07-29T04:04:16;4.25;;;2.70;;
12900;SDS011;6518;50.930;5.344;2022-07-29T04:06:44;5.53;;;3.10;;
12900;SDS011;6518;50.930;5.344;2022-07-29T04:09:12;7.85;;;2.70;;
12900;SDS011;6518;50.930;5.344;2022-07-29T04:11:39;5.30;;;3.03;;
12900;SDS011;6518;50.930;5.344;2022-07-29T04:14:08;4.70;;;3.03;;
12900;SDS011;6518;50.930;5.344;2022-07-29T04:16:35;4.63;;;2.80;;
12900;SDS011;6518;50.930;5.344;2022-07-29T04:19:02;5.45;;;3.00;;
12900;SDS011;6518;50.930;5.344;2022-07-29T04:21:29;5.07;;;3.10;;
12900;SDS011;6518;50.930;5.344;2022-07-29T04:23:56;4.15;;;2.92;;
12900;SDS011;6518;50.930;5.344;2022-07-29T04:26:23;4.40;;;3.00;;
12900;SDS011;6518;50.930;5.344;2022-07-29T04:28:49;7.82;;;3.15;;
12900;SDS011;6518;50.930;5.344;2022-07-29T04:31:18;5.25;;;3.10;;
12900;SDS011;6518;50.930;5.344;2022-07-29T04:33:45;3.95;;;3.05;;
12900;SDS011;6518;50.930;5.344;2022-07-29T04:36:11;3.83;;;2.90;;
12900;SDS011;6518;50.930;5.344;2022-07-29T04:38:38;3.83;;;2.92;;
12900;SDS011;6518;50.930;5.344;2022-07-29T04:41:05;3.42;;;2.90;;
12900;SDS011;6518;50.930;5.344;2022-07-29T04:43:33;7.05;;;3.22;;
12900;SDS011;6518;50.930;5.344;2022-07-29T04:46:00;4.03;;;2.83;;
12900;SDS011;6518;50.930;5.344;2022-07-29T04:48:29;5.18;;;2.90;;
12900;SDS011;6518;50.930;5.344;2022-07-29T04:50:56;5.55;;;3.03;;
12900;SDS011;6518;50.930;5.344;2022-07-29T04:53:23;6.18;;;3.13;;
12900;SDS011;6518;50.930;5.344;2022-07-29T04:55:50;5.93;;;3.03;;
12900;SDS011;6518;50.930;5.344;2022-07-29T04:58:17;4.68;;;3.00;;
12900;SDS011;6518;50.930;5.344;2022-07-29T05:00:44;4.60;;;3.30;;
12900;SDS011;6518;50.930;5.344;2022-07-29T05:03:11;4.28;;;3.33;;
12900;SDS011;6518;50.930;5.344;2022-07-29T05:05:39;10.23;;;4.10;;
12900;SDS011;6518;50.930;5.344;2022-07-29T05:08:07;6.72;;;3.83;;
12900;SDS011;6518;50.930;5.344;2022-07-29T05:10:34;5.10;;;3.83;;
12900;SDS011;6518;50.930;5.344;2022-07-29T05:13:03;4.70;;;3.85;;
12900;SDS011;6518;50.930;5.344;2022-07-29T05:15:31;7.43;;;4.03;;
12900;SDS011;6518;50.930;5.344;2022-07-29T05:17:58;5.40;;;4.32;;
12900;SDS011;6518;50.930;5.344;2022-07-29T05:20:26;8.10;;;3.90;;
12900;SDS011;6518;50.930;5.344;2022-07-29T05:22:55;7.10;;;4.50;;
12900;SDS011;6518;50.930;5.344;2022-07-29T05:25:21;6.57;;;3.90;;
12900;SDS011;6518;50.930;5.344;2022-07-29T05:27:48;5.07;;;3.85;;
12900;SDS011;6518;50.930;5.344;2022-07-29T05:30:16;6.85;;;4.03;;
12900;SDS011;6518;50.930;5.344;2022-07-29T05:32:43;6.95;;;4.25;;
12900;SDS011;6518;50.930;5.344;2022-07-29T05:35:09;7.65;;;4.50;;
12900;SDS011;6518;50.930;5.344;2022-07-29T05:37:37;10.10;;;4.50;;
12900;SDS011;6518;50.930;5.344;2022-07-29T05:40:06;7.85;;;4.80;;
12900;SDS011;6518;50.930;5.344;2022-07-29T05:42:33;7.30;;;4.88;;
12900;SDS011;6518;50.930;5.344;2022-07-29T05:45:00;6.28;;;4.45;;
12900;SDS011;6518;50.930;5.344;2022-07-29T05:47:28;7.68;;;4.88;;
12900;SDS011;6518;50.930;5.344;2022-07-29T05:49:55;6.85;;;4.90;;
12900;SDS011;6518;50.930;5.344;2022-07-29T05:52:22;8.13;;;4.80;;
12900;SDS011;6518;50.930;5.344;2022-07-29T05:54:49;6.65;;;4.63;;
12900;SDS011;6518;50.930;5.344;2022-07-29T05:57:18;6.60;;;4.47;;
12900;SDS011;6518;50.930;5.344;2022-07-29T05:59:46;8.80;;;4.43;;
12900;SDS011;6518;50.930;5.344;2022-07-29T06:02:14;9.27;;;5.00;;
12900;SDS011;6518;50.930;5.344;2022-07-29T06:04:41;8.35;;;5.45;;
12900;SDS011;6518;50.930;5.344;2022-07-29T06:07:09;7.25;;;5.20;;
12900;SDS011;6518;50.930;5.344;2022-07-29T06:09:36;8.18;;;5.25;;
12900;SDS011;6518;50.930;5.344;2022-07-29T06:12:03;8.02;;;4.88;;
12900;SDS011;6518;50.930;5.344;2022-07-29T06:14:32;5.38;;;4.88;;
12900;SDS011;6518;50.930;5.344;2022-07-29T06:16:59;7.93;;;5.07;;
12900;SDS011;6518;50.930;5.344;2022-07-29T06:19:25;10.30;;;5.47;;
12900;SDS011;6518;50.930;5.344;2022-07-29T06:21:54;6.63;;;4.75;;
12900;SDS011;6518;50.930;5.344;2022-07-29T06:24:20;5.63;;;4.70;;
12900;SDS011;6518;50.930;5.344;2022-07-29T06:26:47;6.28;;;4.82;;
12900;SDS011;6518;50.930;5.344;2022-07-29T06:29:14;10.63;;;5.15;;
12900;SDS011;6518;50.930;5.344;2022-07-29T06:31:43;7.85;;;5.05;;
12900;SDS011;6518;50.930;5.344;2022-07-29T06:34:10;6.60;;;5.07;;
12900;SDS011;6518;50.930;5.344;2022-07-29T06:36:37;8.25;;;5.13;;
12900;SDS011;6518;50.930;5.344;2022-07-29T06:39:04;7.47;;;5.18;;
12900;SDS011;6518;50.930;5.344;2022-07-29T06:41:32;9.18;;;5.30;;
12900;SDS011;6518;50.930;5.344;2022-07-29T06:43:59;10.00;;;5.18;;
12900;SDS011;6518;50.930;5.344;2022-07-29T06:46:26;7.22;;;5.32;;
12900;SDS011;6518;50.930;5.344;2022-07-29T06:48:55;7.85;;;5.30;;
12900;SDS011;6518;50.930;5.344;2022-07-29T06:51:22;8.93;;;4.82;;
12900;SDS011;6518;50.930;5.344;2022-07-29T06:53:49;7.63;;;4.88;;
12900;SDS011;6518;50.930;5.344;2022-07-29T06:56:17;7.43;;;4.90;;
12900;SDS011;6518;50.930;5.344;2022-07-29T06:58:44;6.55;;;4.88;;
12900;SDS011;6518;50.930;5.344;2022-07-29T07:01:11;6.60;;;4.93;;
12900;SDS011;6518;50.930;5.344;2022-07-29T07:03:38;6.57;;;5.47;;
12900;SDS011;6518;50.930;5.344;2022-07-29T07:06:07;7.10;;;4.80;;
12900;SDS011;6518;50.930;5.344;2022-07-29T07:08:34;8.45;;;5.22;;
12900;SDS011;6518;50.930;5.344;2022-07-29T07:11:01;7.55;;;5.10;;
12900;SDS011;6518;50.930;5.344;2022-07-29T07:13:29;9.52;;;5.13;;
12900;SDS011;6518;50.930;5.344;2022-07-29T07:15:59;6.93;;;5.15;;
12900;SDS011;6518;50.930;5.344;2022-07-29T07:18:27;7.47;;;5.30;;
12900;SDS011;6518;50.930;5.344;2022-07-29T07:20:54;7.75;;;5.13;;
12900;SDS011;6518;50.930;5.344;2022-07-29T07:23:23;8.18;;;5.32;;
12900;SDS011;6518;50.930;5.344;2022-07-29T07:25:50;7.85;;;5.10;;
12900;SDS011;6518;50.930;5.344;2022-07-29T07:28:18;7.45;;;6.15;;
12900;SDS011;6518;50.930;5.344;2022-07-29T07:30:45;8.20;;;5.28;;
12900;SDS011;6518;50.930;5.344;2022-07-29T07:33:12;7.35;;;4.82;;
12900;SDS011;6518;50.930;5.344;2022-07-29T07:35:39;6.53;;;5.40;;
12900;SDS011;6518;50.930;5.344;2022-07-29T07:38:06;7.15;;;5.55;;
12900;SDS011;6518;50.930;5.344;2022-07-29T07:40:35;9.43;;;5.32;;
12900;SDS011;6518;50.930;5.344;2022-07-29T07:43:02;7.72;;;5.18;;
12900;SDS011;6518;50.930;5.344;2022-07-29T07:45:29;5.75;;;4.70;;
12900;SDS011;6518;50.930;5.344;2022-07-29T07:47:57;5.45;;;4.95;;
12900;SDS011;6518;50.930;5.344;2022-07-29T07:50:24;7.50;;;5.25;;
12900;SDS011;6518;50.930;5.344;2022-07-29T07:52:53;6.35;;;5.07;;
12900;SDS011;6518;50.930;5.344;2022-07-29T07:55:22;5.90;;;5.30;;
12900;SDS011;6518;50.930;5.344;2022-07-29T07:57:51;9.25;;;4.90;;
12900;SDS011;6518;50.930;5.344;2022-07-29T08:00:19;10.70;;;5.07;;
12900;SDS011;6518;50.930;5.344;2022-07-29T08:02:46;12.45;;;5.00;;
12900;SDS011;6518;50.930;5.344;2022-07-29T08:05:13;7.00;;;5.03;;
12900;SDS011;6518;50.930;5.344;2022-07-29T08:07:43;6.85;;;4.90;;
12900;SDS011;6518;50.930;5.344;2022-07-29T08:10:11;6.68;;;4.50;;
12900;SDS011;6518;50.930;5.344;2022-07-29T08:12:38;9.02;;;4.60;;
12900;SDS011;6518;50.930;5.344;2022-07-29T08:15:07;8.23;;;4.80;;
12900;SDS011;6518;50.930;5.344;2022-07-29T08:17:34;5.90;;;4.53;;
12900;SDS011;6518;50.930;5.344;2022-07-29T08:20:02;6.13;;;4.20;;
12900;SDS011;6518;50.930;5.344;2022-07-29T08:22:29;7.47;;;4.03;;
12900;SDS011;6518;50.930;5.344;2022-07-29T08:24:56;6.28;;;4.75;;
12900;SDS011;6518;50.930;5.344;2022-07-29T08:27:23;5.60;;;4.35;;
12900;SDS011;6518;50.930;5.344;2022-07-29T08:29:51;6.38;;;4.13;;
12900;SDS011;6518;50.930;5.344;2022-07-29T08:32:22;7.25;;;3.97;;
12900;SDS011;6518;50.930;5.344;2022-07-29T08:34:49;5.53;;;4.47;;
12900;SDS011;6518;50.930;5.344;2022-07-29T08:37:16;7.45;;;4.38;;
12900;SDS011;6518;50.930;5.344;2022-07-29T08:39:42;7.47;;;4.32;;
12900;SDS011;6518;50.930;5.344;2022-07-29T08:42:10;4.68;;;4.13;;
12900;SDS011;6518;50.930;5.344;2022-07-29T08:44:37;5.60;;;4.00;;
12900;SDS011;6518;50.930;5.344;2022-07-29T08:47:04;9.30;;;4.40;;
12900;SDS011;6518;50.930;5.344;2022-07-29T08:49:34;7.60;;;4.13;;
12900;SDS011;6518;50.930;5.344;2022-07-29T08:52:01;7.75;;;4.35;;
12900;SDS011;6518;50.930;5.344;2022-07-29T08:54:29;8.13;;;4.75;;
12900;SDS011;6518;50.930;5.344;2022-07-29T08:56:56;5.95;;;4.53;;
12900;SDS011;6518;50.930;5.344;2022-07-29T08:59:24;5.13;;;4.60;;
12900;SDS011;6518;50.930;5.344;2022-07-29T09:01:53;8.05;;;4.60;;
12900;SDS011;6518;50.930;5.344;2022-07-29T09:04:20;6.70;;;4.72;;
12900;SDS011;6518;50.930;5.344;2022-07-29T09:06:52;8.98;;;5.00;;
12900;SDS011;6518;50.930;5.344;2022-07-29T09:09:23;5.25;;;4.65;;
12900;SDS011;6518;50.930;5.344;2022-07-29T09:11:50;5.25;;;4.60;;
12900;SDS011;6518;50.930;5.344;2022-07-29T09:14:18;6.85;;;4.47;;
12900;SDS011;6518;50.930;5.344;2022-07-29T09:16:46;10.85;;;4.97;;
12900;SDS011;6518;50.930;5.344;2022-07-29T09:19:25;6.47;;;4.88;;
12900;SDS011;6518;50.930;5.344;2022-07-29T09:21:55;6.53;;;4.80;;
12900;SDS011;6518;50.930;5.344;2022-07-29T09:24:23;6.97;;;4.05;;
12900;SDS011;6518;50.930;5.344;2022-07-29T09:26:50;5.30;;;4.35;;
12900;SDS011;6518;50.930;5.344;2022-07-29T09:29:18;4.85;;;4.35;;
12900;SDS011;6518;50.930;5.344;2022-07-29T09:31:46;6.60;;;5.00;;
12900;SDS011;6518;50.930;5.344;2022-07-29T09:34:16;7.38;;;4.97;;
12900;SDS011;6518;50.930;5.344;2022-07-29T09:36:48;7.07;;;5.28;;
12900;SDS011;6518;50.930;5.344;2022-07-29T09:39:26;8.98;;;5.22;;
12900;SDS011;6518;50.930;5.344;2022-07-29T09:41:56;7.72;;;4.60;;
12900;SDS011;6518;50.930;5.344;2022-07-29T09:44:25;7.05;;;5.07;;
12900;SDS011;6518;50.930;5.344;2022-07-29T09:46:53;7.45;;;5.15;;
12900;SDS011;6518;50.930;5.344;2022-07-29T09:49:30;6.40;;;5.10;;
12900;SDS011;6518;50.930;5.344;2022-07-29T09:52:03;5.30;;;4.50;;
12900;SDS011;6518;50.930;5.344;2022-07-29T09:54:33;8.75;;;4.38;;
12900;SDS011;6518;50.930;5.344;2022-07-29T09:57:04;7.03;;;4.38;;
12900;SDS011;6518;50.930;5.344;2022-07-29T09:59:31;9.88;;;4.47;;
12900;SDS011;6518;50.930;5.344;2022-07-29T10:01:59;5.40;;;4.30;;
12900;SDS011;6518;50.930;5.344;2022-07-29T10:04:36;6.82;;;4.28;;
12900;SDS011;6518;50.930;5.344;2022-07-29T10:07:04;7.72;;;4.18;;
12900;SDS011;6518;50.930;5.344;2022-07-29T10:09:34;7.00;;;4.28;;
12900;SDS011;6518;50.930;5.344;2022-07-29T10:12:05;5.07;;;3.50;;
12900;SDS011;6518;50.930;5.344;2022-07-29T10:14:34;3.70;;;3.20;;
12900;SDS011;6518;50.930;5.344;2022-07-29T10:17:02;5.47;;;2.90;;
12900;SDS011;6518;50.930;5.344;2022-07-29T10:19:31;4.45;;;3.10;;
12900;SDS011;6518;50.930;5.344;2022-07-29T10:21:59;6.70;;;3.60;;
12900;SDS011;6518;50.930;5.344;2022-07-29T10:24:28;6.70;;;3.22;;
12900;SDS011;6518;50.930;5.344;2022-07-29T10:26:58;4.88;;;2.90;;
12900;SDS011;6518;50.930;5.344;2022-07-29T10:29:26;6.13;;;3.28;;
12900;SDS011;6518;50.930;5.344;2022-07-29T10:32:00;4.95;;;3.30;;
12900;SDS011;6518;50.930;5.344;2022-07-29T10:37:51;5.43;;;3.17;;
12900;SDS011;6518;50.930;5.344;2022-07-29T10:40:32;7.18;;;2.80;;
12900;SDS011;6518;50.930;5.344;2022-07-29T10:43:27;5.40;;;2.90;;
12900;SDS011;6518;50.930;5.344;2022-07-29T10:45:59;5.00;;;3.90;;
12900;SDS011;6518;50.930;5.344;2022-07-29T10:48:26;4.45;;;2.80;;
12900;SDS011;6518;50.930;5.344;2022-07-29T10:50:54;4.85;;;3.10;;
12900;SDS011;6518;50.930;5.344;2022-07-29T10:53:23;6.45;;;3.00;;
12900;SDS011;6518;50.930;5.344;2022-07-29T10:56:23;5.13;;;2.80;;
12900;SDS011;6518;50.930;5.344;2022-07-29T11:01:51;4.30;;;2.50;;
12900;SDS011;6518;50.930;5.344;2022-07-29T11:07:19;3.75;;;2.50;;
12900;SDS011;6518;50.930;5.344;2022-07-29T11:12:50;3.80;;;2.63;;
12900;SDS011;6518;50.930;5.344;2022-07-29T11:15:18;4.75;;;2.30;;
12900;SDS011;6518;50.930;5.344;2022-07-29T11:18:05;4.88;;;2.83;;
12900;SDS011;6518;50.930;5.344;2022-07-29T11:20:33;3.38;;;2.30;;
12900;SDS011;6518;50.930;5.344;2022-07-29T11:23:16;3.70;;;2.63;;
12900;SDS011;6518;50.930;5.344;2022-07-29T11:25:45;3.67;;;2.30;;
12900;SDS011;6518;50.930;5.344;2022-07-29T11:28:16;3.85;;;2.20;;
12900;SDS011;6518;50.930;5.344;2022-07-29T11:30:50;4.78;;;2.50;;
12900;SDS011;6518;50.930;5.344;2022-07-29T11:33:27;3.55;;;2.38;;
12900;SDS011;6518;50.930;5.344;2022-07-29T11:36:08;3.25;;;2.00;;
12900;SDS011;6518;50.930;5.344;2022-07-29T11:38:36;2.55;;;1.98;;
12900;SDS011;6518;50.930;5.344;2022-07-29T11:44:03;6.70;;;2.45;;
12900;SDS011;6518;50.930;5.344;2022-07-29T11:46:46;3.50;;;1.90;;
12900;SDS011;6518;50.930;5.344;2022-07-29T11:49:18;5.55;;;2.60;;
12900;SDS011;6518;50.930;5.344;2022-07-29T11:51:49;4.85;;;2.30;;
12900;SDS011;6518;50.930;5.344;2022-07-29T11:54:21;4.43;;;2.42;;
12900;SDS011;6518;50.930;5.344;2022-07-29T11:56:51;4.32;;;2.65;;
12900;SDS011;6518;50.930;5.344;2022-07-29T11:59:20;3.65;;;2.30;;
12900;SDS011;6518;50.930;5.344;2022-07-29T12:01:53;3.35;;;2.40;;
12900;SDS011;6518;50.930;5.344;2022-07-29T12:04:21;3.80;;;2.13;;
12900;SDS011;6518;50.930;5.344;2022-07-29T12:06:49;6.15;;;2.40;;
12900;SDS011;6518;50.930;5.344;2022-07-29T12:09:16;3.35;;;2.58;;
12900;SDS011;6518;50.930;5.344;2022-07-29T12:11:43;3.97;;;2.80;;
12900;SDS011;6518;50.930;5.344;2022-07-29T12:14:25;5.80;;;3.33;;
12900;SDS011;6518;50.930;5.344;2022-07-29T12:16:53;5.13;;;2.70;;
12900;SDS011;6518;50.930;5.344;2022-07-29T12:19:20;4.65;;;2.70;;
12900;SDS011;6518;50.930;5.344;2022-07-29T12:21:47;4.57;;;2.75;;
12900;SDS011;6518;50.930;5.344;2022-07-29T12:24:14;4.88;;;3.00;;
12900;SDS011;6518;50.930;5.344;2022-07-29T12:26:51;3.85;;;2.35;;
12900;SDS011;6518;50.930;5.344;2022-07-29T12:29:19;4.95;;;2.47;;
12900;SDS011;6518;50.930;5.344;2022-07-29T12:31:50;3.58;;;2.28;;
12900;SDS011;6518;50.930;5.344;2022-07-29T12:34:19;4.00;;;2.17;;
12900;SDS011;6518;50.930;5.344;2022-07-29T12:36:49;5.55;;;2.33;;
12900;SDS011;6518;50.930;5.344;2022-07-29T12:39:16;3.50;;;1.98;;
12900;SDS011;6518;50.930;5.344;2022-07-29T12:41:44;3.83;;;2.33;;
12900;SDS011;6518;50.930;5.344;2022-07-29T12:44:11;5.97;;;2.75;;
12900;SDS011;6518;50.930;5.344;2022-07-29T12:46:38;2.85;;;2.00;;
12900;SDS011;6518;50.930;5.344;2022-07-29T12:49:06;3.28;;;2.22;;
12900;SDS011;6518;50.930;5.344;2022-07-29T12:51:34;2.78;;;2.28;;
12900;SDS011;6518;50.930;5.344;2022-07-29T12:54:03;4.68;;;2.15;;
12900;SDS011;6518;50.930;5.344;2022-07-29T12:56:32;5.15;;;2.35;;
12900;SDS011;6518;50.930;5.344;2022-07-29T12:58:59;4.57;;;2.35;;
12900;SDS011;6518;50.930;5.344;2022-07-29T13:01:36;3.15;;;1.95;;
12900;SDS011;6518;50.930;5.344;2022-07-29T13:04:03;2.92;;;2.00;;
12900;SDS011;6518;50.930;5.344;2022-07-29T13:06:33;4.95;;;1.98;;
12900;SDS011;6518;50.930;5.344;2022-07-29T13:09:04;4.07;;;2.05;;
12900;SDS011;6518;50.930;5.344;2022-07-29T13:11:33;3.05;;;1.92;;
12900;SDS011;6518;50.930;5.344;2022-07-29T13:14:00;3.55;;;2.22;;
12900;SDS011;6518;50.930;5.344;2022-07-29T13:16:28;3.03;;;2.35;;
12900;SDS011;6518;50.930;5.344;2022-07-29T13:19:05;2.83;;;1.77;;
12900;SDS011;6518;50.930;5.344;2022-07-29T13:21:36;3.88;;;2.10;;
12900;SDS011;6518;50.930;5.344;2022-07-29T13:24:04;5.25;;;2.28;;
12900;SDS011;6518;50.930;5.344;2022-07-29T13:26:32;3.88;;;2.20;;
12900;SDS011;6518;50.930;5.344;2022-07-29T13:28:59;6.38;;;2.00;;
12900;SDS011;6518;50.930;5.344;2022-07-29T13:31:26;4.57;;;2.20;;
12900;SDS011;6518;50.930;5.344;2022-07-29T13:33:53;4.15;;;2.70;;
12900;SDS011;6518;50.930;5.344;2022-07-29T13:36:21;6.13;;;2.13;;
12900;SDS011;6518;50.930;5.344;2022-07-29T13:38:49;6.35;;;2.28;;
12900;SDS011;6518;50.930;5.344;2022-07-29T13:41:16;2.33;;;1.83;;
12900;SDS011;6518;50.930;5.344;2022-07-29T13:43:43;3.72;;;2.17;;
12900;SDS011;6518;50.930;5.344;2022-07-29T13:46:10;3.88;;;1.80;;
12900;SDS011;6518;50.930;5.344;2022-07-29T13:48:37;3.72;;;1.75;;
12900;SDS011;6518;50.930;5.344;2022-07-29T13:51:04;2.72;;;1.73;;
12900;SDS011;6518;50.930;5.344;2022-07-29T13:53:31;2.60;;;1.77;;
12900;SDS011;6518;50.930;5.344;2022-07-29T13:55:59;2.63;;;1.70;;
12900;SDS011;6518;50.930;5.344;2022-07-29T13:58:26;4.30;;;1.88;;
12900;SDS011;6518;50.930;5.344;2022-07-29T14:00:53;3.03;;;1.92;;
12900;SDS011;6518;50.930;5.344;2022-07-29T14:03:21;3.75;;;1.58;;
12900;SDS011;6518;50.930;5.344;2022-07-29T14:05:49;4.53;;;1.88;;
12900;SDS011;6518;50.930;5.344;2022-07-29T14:08:16;3.10;;;1.73;;
12900;SDS011;6518;50.930;5.344;2022-07-29T14:10:43;2.03;;;1.52;;
12900;SDS011;6518;50.930;5.344;2022-07-29T14:13:11;3.58;;;1.80;;
12900;SDS011;6518;50.930;5.344;2022-07-29T14:15:38;2.40;;;1.67;;
12900;SDS011;6518;50.930;5.344;2022-07-29T14:18:05;4.03;;;1.95;;
12900;SDS011;6518;50.930;5.344;2022-07-29T14:20:32;4.07;;;2.13;;
12900;SDS011;6518;50.930;5.344;2022-07-29T14:22:59;5.03;;;2.03;;
12900;SDS011;6518;50.930;5.344;2022-07-29T14:25:26;2.65;;;1.58;;
12900;SDS011;6518;50.930;5.344;2022-07-29T14:27:52;4.38;;;2.00;;
12900;SDS011;6518;50.930;5.344;2022-07-29T14:30:21;3.80;;;1.90;;
12900;SDS011;6518;50.930;5.344;2022-07-29T14:32:48;8.70;;;1.90;;
12900;SDS011;6518;50.930;5.344;2022-07-29T14:35:15;4.03;;;1.90;;
12900;SDS011;6518;50.930;5.344;2022-07-29T14:37:42;3.67;;;2.00;;
12900;SDS011;6518;50.930;5.344;2022-07-29T14:40:09;2.20;;;1.88;;
12900;SDS011;6518;50.930;5.344;2022-07-29T14:42:36;5.07;;;1.90;;
12900;SDS011;6518;50.930;5.344;2022-07-29T14:45:04;5.15;;;2.17;;
12900;SDS011;6518;50.930;5.344;2022-07-29T14:47:34;4.50;;;2.28;;
12900;SDS011;6518;50.930;5.344;2022-07-29T14:50:01;3.33;;;1.92;;
12900;SDS011;6518;50.930;5.344;2022-07-29T14:52:28;5.45;;;2.00;;
12900;SDS011;6518;50.930;5.344;2022-07-29T14:54:55;4.25;;;1.85;;
12900;SDS011;6518;50.930;5.344;2022-07-29T14:57:22;4.53;;;1.90;;
12900;SDS011;6518;50.930;5.344;2022-07-29T14:59:49;3.03;;;2.00;;
12900;SDS011;6518;50.930;5.344;2022-07-29T15:02:16;4.18;;;2.08;;
12900;SDS011;6518;50.930;5.344;2022-07-29T15:04:44;3.90;;;1.90;;
12900;SDS011;6518;50.930;5.344;2022-07-29T15:07:13;7.93;;;1.92;;
12900;SDS011;6518;50.930;5.344;2022-07-29T15:09:40;4.75;;;2.03;;
12900;SDS011;6518;50.930;5.344;2022-07-29T15:12:07;3.10;;;2.08;;
12900;SDS011;6518;50.930;5.344;2022-07-29T15:14:35;4.18;;;1.98;;
12900;SDS011;6518;50.930;5.344;2022-07-29T15:17:02;3.92;;;1.95;;
12900;SDS011;6518;50.930;5.344;2022-07-29T15:19:29;4.15;;;1.90;;
12900;SDS011;6518;50.930;5.344;2022-07-29T15:21:58;4.80;;;1.92;;
12900;SDS011;6518;50.930;5.344;2022-07-29T15:24:25;4.05;;;1.90;;
12900;SDS011;6518;50.930;5.344;2022-07-29T15:26:52;7.50;;;2.00;;
12900;SDS011;6518;50.930;5.344;2022-07-29T15:29:19;6.07;;;2.00;;